createdAt,value
2019-01-17T00:01:23.927Z,0.42
2019-01-17T00:03:56.578Z,0.40
2019-01-17T00:06:42.508Z,0.41
2019-01-17T00:09:12.414Z,0.40
2019-01-17T00:11:50.887Z,0.36
2019-01-17T00:14:26.819Z,0.36
2019-01-17T00:16:56.747Z,0.35
2019-01-17T00:19:26.643Z,0.34
2019-01-17T00:22:11.349Z,0.33
2019-01-17T00:24:50.112Z,0.35
2019-01-17T00:27:22.496Z,0.35
2019-01-17T00:29:52.404Z,0.34
2019-01-17T00:32:22.313Z,0.30
2019-01-17T00:35:01.357Z,0.27
2019-01-17T00:37:37.108Z,0.25
2019-01-17T00:40:10.284Z,0.23
2019-01-17T00:42:40.227Z,0.23
2019-01-17T00:45:27.935Z,0.23
2019-01-17T00:48:06.703Z,0.23
2019-01-17T00:50:42.245Z,0.22
2019-01-17T00:53:24.389Z,0.19
2019-01-17T00:55:54.302Z,0.13
2019-01-17T00:58:40.686Z,0.11
2019-01-17T01:01:10.653Z,0.09
2019-01-17T01:03:46.472Z,0.09
2019-01-17T01:06:16.440Z,0.09
2019-01-17T01:08:52.058Z,0.10
2019-01-17T01:11:24.779Z,0.09
2019-01-17T01:13:54.670Z,0.08
2019-01-17T01:16:30.333Z,0.08
2019-01-17T01:19:09.296Z,0.08
2019-01-17T01:21:44.870Z,0.08
2019-01-17T01:24:30.707Z,0.05
2019-01-17T01:27:00.741Z,-0.04
2019-01-17T01:29:39.865Z,-0.17
2019-01-17T01:32:09.815Z,-0.32
2019-01-17T01:34:39.757Z,-0.30
2019-01-17T01:37:12.389Z,-0.22
2019-01-17T01:39:42.311Z,-0.21
2019-01-17T01:42:21.215Z,-0.20
2019-01-17T01:44:53.945Z,-0.12
2019-01-17T01:47:35.867Z,-0.07
2019-01-17T01:50:07.645Z,-0.04
2019-01-17T01:52:43.507Z,-0.04
2019-01-17T01:55:11.809Z,-0.02
2019-01-17T01:57:40.129Z,-0.03
2019-01-17T02:00:10.791Z,-0.06
2019-01-17T02:02:39.067Z,-0.08
2019-01-17T02:05:07.336Z,-0.06
2019-01-17T02:07:35.705Z,0.05
2019-01-17T02:10:06.465Z,0.14
2019-01-17T02:12:34.788Z,0.16
2019-01-17T02:15:03.031Z,0.19
2019-01-17T02:17:31.342Z,0.25
2019-01-17T02:19:59.877Z,0.33
2019-01-17T02:22:28.133Z,0.47
2019-01-17T02:24:56.397Z,0.54
2019-01-17T02:27:24.652Z,0.67
2019-01-17T02:29:52.911Z,0.77
2019-01-17T02:32:21.169Z,0.84
2019-01-17T02:34:49.430Z,0.90
2019-01-17T02:37:17.689Z,0.93
2019-01-17T02:39:45.942Z,0.96
2019-01-17T02:42:14.221Z,0.92
2019-01-17T02:44:42.471Z,0.86
2019-01-17T02:47:10.736Z,0.81
2019-01-17T02:49:39.000Z,0.91
2019-01-17T02:52:07.262Z,1.05
2019-01-17T02:54:35.893Z,1.16
2019-01-17T02:57:04.257Z,1.27
2019-01-17T02:59:32.501Z,1.32
2019-01-17T03:02:00.769Z,1.31
2019-01-17T03:04:29.016Z,1.38
2019-01-17T03:06:57.280Z,1.38
2019-01-17T03:09:25.573Z,1.43
2019-01-17T03:11:53.816Z,1.51
2019-01-17T03:14:22.078Z,1.58
2019-01-17T03:16:50.671Z,1.60
2019-01-17T03:19:18.915Z,1.56
2019-01-17T03:21:47.182Z,1.46
2019-01-17T03:24:15.432Z,1.35
2019-01-17T03:26:43.723Z,1.37
2019-01-17T03:29:11.990Z,1.38
2019-01-17T03:31:40.246Z,1.44
2019-01-17T03:34:08.499Z,1.46
2019-01-17T03:36:36.750Z,1.49
2019-01-17T03:39:07.410Z,1.57
2019-01-17T03:41:35.742Z,1.57
2019-01-17T03:44:03.997Z,1.54
2019-01-17T03:46:32.269Z,1.50
2019-01-17T03:49:00.561Z,1.50
2019-01-17T03:51:28.812Z,1.49
2019-01-17T03:53:57.075Z,1.53
2019-01-17T03:56:25.353Z,1.55
2019-01-17T03:58:53.634Z,1.60
2019-01-17T04:01:21.910Z,1.61
2019-01-17T04:03:50.228Z,1.62
2019-01-17T04:06:18.484Z,1.65
2019-01-17T04:08:46.748Z,1.75
2019-01-17T04:11:15.010Z,1.88
2019-01-17T04:13:43.299Z,2.01
2019-01-17T04:16:11.563Z,2.06
2019-01-17T04:18:39.824Z,2.07
2019-01-17T04:21:08.158Z,2.07
2019-01-17T04:23:36.443Z,2.06
2019-01-17T04:26:04.924Z,2.07
2019-01-17T04:28:33.204Z,2.05
2019-01-17T04:31:01.534Z,2.07
2019-01-17T04:33:29.870Z,2.10
2019-01-17T04:35:58.201Z,2.11
2019-01-17T04:38:26.456Z,2.17
2019-01-17T04:40:54.748Z,2.17
2019-01-17T04:43:23.203Z,2.14
2019-01-17T04:45:53.099Z,2.02
2019-01-17T04:48:21.412Z,1.96
2019-01-17T04:50:49.872Z,1.98
2019-01-17T04:53:18.141Z,2.01
2019-01-17T04:55:46.685Z,2.01
2019-01-17T04:58:14.945Z,2.03
2019-01-17T05:00:43.296Z,1.96
2019-01-17T05:03:11.568Z,1.90
2019-01-17T05:05:39.890Z,1.83
2019-01-17T05:08:08.156Z,1.72
2019-01-17T05:10:36.416Z,1.72
2019-01-17T05:13:04.681Z,1.78
2019-01-17T05:15:32.944Z,1.77
2019-01-17T05:18:01.273Z,1.78
2019-01-17T05:20:29.541Z,1.82
2019-01-17T05:22:57.810Z,1.93
2019-01-17T05:25:26.122Z,1.99
2019-01-17T05:27:54.390Z,1.98
2019-01-17T05:30:22.675Z,1.98
2019-01-17T05:32:50.984Z,2.02
2019-01-17T05:35:19.247Z,2.02
2019-01-17T05:37:47.524Z,2.01
2019-01-17T05:40:17.729Z,1.95
2019-01-17T05:42:46.096Z,1.92
2019-01-17T05:45:14.447Z,1.89
2019-01-17T05:47:42.771Z,1.87
2019-01-17T05:50:16.292Z,1.86
2019-01-17T05:52:44.616Z,1.96
2019-01-17T05:55:19.434Z,2.01
2019-01-17T05:57:42.913Z,1.97
2019-01-17T06:00:19.214Z,1.99
2019-01-17T06:02:47.464Z,2.07
2019-01-17T06:05:16.840Z,2.17
2019-01-17T06:07:45.116Z,2.26
2019-01-17T06:10:13.445Z,2.41
2019-01-17T06:12:41.730Z,2.52
2019-01-17T06:15:12.508Z,2.66
2019-01-17T06:17:40.906Z,2.77
2019-01-17T06:20:12.851Z,2.90
2019-01-17T06:22:41.110Z,3.00
2019-01-17T06:25:09.492Z,3.10
2019-01-17T06:27:37.749Z,3.11
2019-01-17T06:30:11.958Z,3.10
2019-01-17T06:32:40.321Z,3.20
2019-01-17T06:35:09.864Z,3.32
2019-01-17T06:37:38.309Z,3.39
2019-01-17T06:40:21.453Z,3.46
2019-01-17T06:42:49.796Z,3.50
2019-01-17T06:45:18.192Z,3.51
2019-01-17T06:47:46.554Z,3.53
2019-01-17T06:50:14.812Z,3.53
2019-01-17T06:52:43.091Z,3.54
2019-01-17T06:55:11.365Z,3.55
2019-01-17T06:57:39.628Z,3.53
2019-01-17T07:00:13.494Z,3.52
2019-01-17T07:02:41.760Z,3.51
2019-01-17T07:05:10.807Z,3.47
2019-01-17T07:07:39.112Z,3.47
2019-01-17T07:10:10.626Z,3.51
2019-01-17T07:12:38.906Z,3.54
2019-01-17T07:15:08.608Z,3.63
2019-01-17T07:17:36.883Z,3.69
2019-01-17T07:20:08.362Z,3.70
2019-01-17T07:22:36.723Z,3.74
2019-01-17T07:25:06.949Z,3.82
2019-01-17T07:27:35.368Z,3.87
2019-01-17T07:30:05.621Z,3.92
2019-01-17T07:32:33.978Z,3.96
2019-01-17T07:35:02.314Z,4.00
2019-01-17T07:37:35.134Z,4.03
2019-01-17T07:40:13.439Z,4.02
2019-01-17T07:42:41.721Z,4.03
2019-01-17T07:45:17.234Z,4.07
2019-01-17T07:47:45.597Z,4.10
2019-01-17T07:50:13.866Z,4.14
2019-01-17T07:52:42.149Z,4.19
2019-01-17T07:55:10.641Z,4.33
2019-01-17T07:57:38.945Z,4.42
2019-01-17T08:00:13.090Z,4.47
2019-01-17T08:02:41.358Z,4.51
2019-01-17T08:05:09.632Z,4.53
2019-01-17T08:07:37.878Z,4.58
2019-01-17T08:10:09.553Z,4.58
2019-01-17T08:12:37.809Z,4.57
2019-01-17T08:15:08.117Z,4.61
2019-01-17T08:17:36.394Z,4.70
2019-01-17T08:20:08.204Z,4.72
2019-01-17T08:22:36.469Z,4.73
2019-01-17T08:25:07.782Z,4.84
2019-01-17T08:27:36.087Z,4.90
2019-01-17T08:30:07.197Z,4.94
2019-01-17T08:32:35.458Z,5.01
2019-01-17T08:35:04.762Z,5.09
2019-01-17T08:37:33.026Z,5.11
2019-01-17T08:40:01.283Z,5.15
2019-01-17T08:42:29.566Z,5.21
2019-01-17T08:44:57.829Z,5.27
2019-01-17T08:47:26.086Z,5.35
2019-01-17T08:49:54.373Z,5.37
2019-01-17T08:52:22.633Z,5.41
2019-01-17T08:54:51.191Z,5.42
2019-01-17T08:57:19.454Z,5.46
2019-01-17T08:59:48.023Z,5.49
2019-01-17T09:02:16.283Z,5.52
2019-01-17T09:04:44.539Z,5.54
2019-01-17T09:07:13.161Z,5.57
2019-01-17T09:09:41.426Z,5.60
2019-01-17T09:12:10.007Z,5.61
2019-01-17T09:14:38.282Z,5.61
2019-01-17T09:17:06.544Z,5.62
2019-01-17T09:19:34.799Z,5.62
2019-01-17T09:22:03.068Z,5.63
2019-01-17T09:24:31.346Z,5.67
2019-01-17T09:26:59.600Z,5.72
2019-01-17T09:29:27.869Z,5.73
2019-01-17T09:31:56.114Z,5.78
2019-01-17T09:34:24.456Z,5.82
2019-01-17T09:36:52.719Z,5.88
2019-01-17T09:39:20.997Z,5.94
2019-01-17T09:41:49.255Z,5.99
2019-01-17T09:44:17.517Z,6.02
2019-01-17T09:46:45.769Z,6.04
2019-01-17T09:49:14.043Z,6.06
2019-01-17T09:51:42.296Z,6.07
2019-01-17T09:54:10.631Z,6.08
2019-01-17T09:56:38.929Z,6.10
2019-01-17T09:59:07.180Z,6.16
2019-01-17T10:01:35.443Z,6.24
2019-01-17T10:04:03.692Z,6.31
2019-01-17T10:06:31.938Z,6.41
2019-01-17T10:09:00.208Z,6.50
2019-01-17T10:11:28.459Z,6.61
2019-01-17T10:13:56.745Z,6.75
2019-01-17T10:16:28.265Z,6.91
2019-01-17T10:19:05.759Z,7.11
2019-01-17T10:21:40.215Z,7.34
2019-01-17T10:24:31.229Z,7.45
2019-01-17T10:27:11.763Z,7.56
2019-01-17T10:30:10.690Z,7.60
2019-01-17T10:33:01.434Z,7.61
2019-01-17T10:35:48.184Z,7.61
2019-01-17T10:38:38.005Z,7.65
2019-01-17T10:41:15.117Z,7.64
2019-01-17T10:43:52.662Z,7.57
2019-01-17T10:46:42.293Z,7.56
2019-01-17T10:49:45.352Z,7.57
2019-01-17T10:52:36.360Z,7.57
2019-01-17T10:55:26.362Z,7.57
2019-01-17T10:57:57.928Z,7.60
2019-01-17T11:00:38.255Z,7.61
2019-01-17T11:03:12.559Z,7.64
2019-01-17T11:05:56.096Z,7.67
2019-01-17T11:08:39.475Z,7.67
2019-01-17T11:11:32.068Z,5.50
2019-01-17T11:14:15.383Z,7.74
2019-01-17T11:17:04.899Z,7.77
2019-01-17T11:19:53.232Z,7.81
2019-01-17T11:22:42.783Z,7.84
2019-01-17T11:25:25.690Z,7.88
2019-01-17T11:28:05.966Z,7.96
2019-01-17T11:30:43.172Z,8.03
2019-01-17T11:33:20.291Z,8.17
2019-01-17T11:35:57.676Z,8.31
2019-01-17T11:38:44.013Z,8.43
2019-01-17T11:41:48.971Z,8.53
2019-01-17T11:44:26.472Z,8.60
2019-01-17T11:47:04.127Z,7.98
2019-01-17T11:49:47.693Z,8.60
2019-01-17T11:52:33.983Z,4.75
2019-01-17T11:55:11.311Z,8.57
2019-01-17T11:57:54.797Z,8.54
2019-01-17T12:00:53.618Z,8.49
2019-01-17T12:03:47.742Z,8.43
2019-01-17T12:06:16.011Z,8.44
2019-01-17T12:08:44.302Z,8.44
2019-01-17T12:11:12.569Z,8.45
2019-01-17T12:13:40.907Z,8.51
2019-01-17T12:16:09.301Z,8.48
2019-01-17T12:18:37.800Z,8.53
2019-01-17T12:21:06.237Z,8.53
2019-01-17T12:23:34.524Z,8.54
2019-01-17T12:26:02.987Z,8.57
2019-01-17T12:28:31.336Z,8.59
2019-01-17T12:30:59.614Z,8.64
2019-01-17T12:33:28.000Z,8.62
2019-01-17T12:35:56.318Z,8.62
2019-01-17T12:38:24.628Z,8.62
2019-01-17T12:40:53.134Z,8.64
2019-01-17T12:43:21.414Z,8.65
2019-01-17T12:45:50.024Z,8.64
2019-01-17T12:48:18.373Z,8.64
2019-01-17T12:50:46.740Z,8.63
2019-01-17T12:53:15.068Z,8.57
2019-01-17T12:55:43.740Z,8.53
2019-01-17T12:58:12.312Z,8.54
2019-01-17T13:00:40.665Z,8.51
2019-01-17T13:03:09.307Z,8.39
2019-01-17T13:05:37.587Z,8.33
2019-01-17T13:08:05.889Z,8.21
2019-01-17T13:10:34.274Z,8.14
2019-01-17T13:13:02.587Z,8.08
2019-01-17T13:15:30.860Z,8.05
2019-01-17T13:17:59.663Z,8.04
2019-01-17T13:20:27.970Z,8.04
2019-01-17T13:22:56.390Z,8.04
2019-01-17T13:25:24.750Z,8.01
2019-01-17T13:27:53.074Z,8.01
2019-01-17T13:30:22.860Z,8.02
2019-01-17T13:32:51.136Z,8.01
2019-01-17T13:35:19.430Z,8.00
2019-01-17T13:37:47.748Z,7.98
2019-01-17T13:40:18.842Z,7.92
2019-01-17T13:42:47.167Z,7.90
2019-01-17T13:45:17.481Z,7.88
2019-01-17T13:47:45.750Z,7.84
2019-01-17T13:50:14.301Z,7.80
2019-01-17T13:52:42.579Z,7.78
2019-01-17T13:55:13.092Z,7.79
2019-01-17T13:57:41.424Z,7.78
2019-01-17T14:00:15.567Z,7.77
2019-01-17T14:02:43.855Z,7.75
2019-01-17T14:05:12.118Z,7.75
2019-01-17T14:07:40.422Z,7.68
2019-01-17T14:10:11.418Z,7.69
2019-01-17T14:12:39.686Z,7.65
2019-01-17T14:15:11.269Z,7.64
2019-01-17T14:17:39.513Z,7.65
2019-01-17T14:20:13.200Z,7.61
2019-01-17T14:22:41.512Z,7.56
2019-01-17T14:25:12.021Z,7.53
2019-01-17T14:27:40.394Z,7.52
2019-01-17T14:30:21.392Z,7.50
2019-01-17T14:32:51.709Z,7.49
2019-01-17T14:35:20.028Z,7.49
2019-01-17T14:37:48.568Z,7.44
2019-01-17T14:40:16.863Z,7.44
2019-01-17T14:42:45.231Z,7.41
2019-01-17T14:45:21.938Z,7.38
2019-01-17T14:47:50.330Z,7.14
2019-01-17T14:50:24.132Z,7.35
2019-01-17T14:52:52.420Z,7.31
2019-01-17T14:55:20.844Z,7.28
2019-01-17T14:57:49.185Z,7.23
2019-01-17T15:00:23.275Z,7.15
2019-01-17T15:02:51.593Z,7.16
2019-01-17T15:05:19.932Z,7.08
2019-01-17T15:07:48.259Z,7.05
2019-01-17T15:10:19.867Z,7.01
2019-01-17T15:12:48.213Z,5.85
2019-01-17T15:15:16.644Z,6.92
2019-01-17T15:17:44.949Z,6.93
2019-01-17T15:20:17.230Z,6.91
2019-01-17T15:22:46.885Z,6.89
2019-01-17T15:25:15.252Z,6.85
2019-01-17T15:27:43.699Z,6.80
2019-01-17T15:30:17.966Z,6.76
2019-01-17T15:32:46.380Z,6.68
2019-01-17T15:35:14.781Z,6.62
2019-01-17T15:37:43.209Z,6.63
2019-01-17T15:40:14.721Z,6.60
2019-01-17T15:42:43.010Z,6.62
2019-01-17T15:45:11.544Z,6.60
2019-01-17T15:47:39.869Z,6.56
2019-01-17T15:50:11.204Z,2.05
2019-01-17T15:52:39.583Z,6.53
2019-01-17T15:55:13.432Z,6.46
2019-01-17T15:57:41.750Z,6.42
2019-01-17T16:00:28.000Z,6.34
2019-01-17T16:02:56.415Z,6.38
2019-01-17T16:05:24.700Z,6.25
2019-01-17T16:07:53.044Z,6.18
2019-01-17T16:10:29.978Z,6.13
2019-01-17T16:12:58.335Z,6.19
2019-01-17T16:15:26.668Z,6.21
2019-01-17T16:17:54.986Z,6.10
2019-01-17T16:20:23.327Z,6.05
2019-01-17T16:22:51.698Z,5.87
2019-01-17T16:25:19.984Z,5.80
2019-01-17T16:27:52.913Z,5.75
2019-01-17T16:30:26.990Z,5.71
2019-01-17T16:32:55.847Z,5.65
2019-01-17T16:35:24.178Z,5.64
2019-01-17T16:37:52.460Z,5.65
2019-01-17T16:40:20.754Z,5.63
2019-01-17T16:42:49.087Z,5.60
2019-01-17T16:45:20.269Z,5.57
2019-01-17T16:47:48.552Z,4.27
2019-01-17T16:50:18.649Z,5.51
2019-01-17T16:52:46.938Z,5.49
2019-01-17T16:55:15.538Z,5.47
2019-01-17T16:57:48.753Z,5.48
2019-01-17T17:00:25.321Z,5.47
2019-01-17T17:02:53.576Z,5.38
2019-01-17T17:05:21.837Z,5.37
2019-01-17T17:07:50.129Z,4.62
2019-01-17T17:10:18.409Z,5.37
2019-01-17T17:12:46.683Z,5.33
2019-01-17T17:15:15.033Z,5.34
2019-01-17T17:17:43.338Z,5.29
2019-01-17T17:20:14.869Z,5.26
2019-01-17T17:22:43.202Z,5.25
2019-01-17T17:25:11.485Z,5.24
2019-01-17T17:27:39.787Z,5.22
2019-01-17T17:30:13.639Z,5.23
2019-01-17T17:32:41.906Z,5.25
2019-01-17T17:35:10.580Z,5.23
2019-01-17T17:37:39.035Z,4.09
2019-01-17T17:40:16.561Z,5.22
2019-01-17T17:42:44.949Z,5.22
2019-01-17T17:45:13.393Z,5.22
2019-01-17T17:47:42.622Z,5.23
2019-01-17T17:50:15.840Z,5.20
2019-01-17T17:52:44.185Z,5.20
2019-01-17T17:55:14.305Z,5.21
2019-01-17T17:57:42.663Z,5.24
2019-01-17T18:00:27.437Z,5.27
2019-01-17T18:02:56.002Z,5.26
2019-01-17T18:05:24.434Z,5.28
2019-01-17T18:07:52.803Z,5.27
2019-01-17T18:10:22.817Z,5.29
2019-01-17T18:12:51.261Z,5.24
2019-01-17T18:15:19.671Z,5.21
2019-01-17T18:17:48.153Z,5.20
2019-01-17T18:20:17.314Z,1.73
2019-01-17T18:22:45.657Z,5.16
2019-01-17T18:25:13.957Z,5.12
2019-01-17T18:27:42.621Z,5.10
2019-01-17T18:30:16.184Z,5.11
2019-01-17T18:32:44.463Z,5.12
2019-01-17T18:35:12.878Z,5.12
2019-01-17T18:37:41.174Z,5.10
2019-01-17T18:40:12.000Z,5.10
2019-01-17T18:42:40.335Z,5.11
2019-01-17T18:45:11.608Z,5.09
2019-01-17T18:47:39.877Z,5.06
2019-01-17T18:50:14.889Z,5.02
2019-01-17T18:52:43.173Z,4.98
2019-01-17T18:55:11.558Z,4.99
2019-01-17T18:57:39.836Z,4.96
2019-01-17T19:00:13.018Z,4.56
2019-01-17T19:02:41.313Z,4.97
2019-01-17T19:05:09.583Z,4.99
2019-01-17T19:07:37.863Z,4.94
2019-01-17T19:10:09.582Z,4.91
2019-01-17T19:12:37.872Z,4.91
2019-01-17T19:15:09.449Z,4.88
2019-01-17T19:17:37.787Z,4.86
2019-01-17T19:20:09.356Z,4.85
2019-01-17T19:22:37.633Z,4.87
2019-01-17T19:25:07.438Z,4.85
2019-01-17T19:27:35.730Z,4.81
2019-01-17T19:30:06.912Z,4.83
2019-01-17T19:32:35.198Z,4.81
2019-01-17T19:35:04.240Z,4.82
2019-01-17T19:37:32.514Z,4.81
2019-01-17T19:40:00.809Z,4.78
2019-01-17T19:42:29.100Z,4.81
2019-01-17T19:44:57.370Z,4.77
2019-01-17T19:47:25.647Z,4.75
2019-01-17T19:49:53.914Z,4.75
2019-01-17T19:52:22.224Z,4.78
2019-01-17T19:54:50.504Z,4.79
2019-01-17T19:57:18.762Z,4.75
2019-01-17T19:59:47.068Z,4.67
2019-01-17T20:02:15.592Z,4.51
2019-01-17T20:04:44.205Z,4.39
2019-01-17T20:07:12.476Z,4.26
2019-01-17T20:09:41.238Z,4.21
2019-01-17T20:12:10.021Z,4.11
2019-01-17T20:14:38.348Z,4.05
2019-01-17T20:17:07.180Z,3.97
2019-01-17T20:19:35.559Z,3.90
2019-01-17T20:22:04.052Z,3.84
2019-01-17T20:24:32.499Z,3.83
2019-01-17T20:27:00.931Z,3.78
2019-01-17T20:29:29.407Z,3.71
2019-01-17T20:31:57.777Z,3.70
2019-01-17T20:34:26.033Z,3.64
2019-01-17T20:36:54.351Z,3.59
2019-01-17T20:39:22.752Z,3.55
2019-01-17T20:41:51.088Z,3.51
2019-01-17T20:44:19.519Z,3.48
2019-01-17T20:46:47.770Z,3.50
2019-01-17T20:49:16.186Z,3.48
2019-01-17T20:51:44.582Z,3.48
2019-01-17T20:54:12.995Z,3.26
2019-01-17T20:56:41.481Z,3.42
2019-01-17T20:59:09.895Z,-0.74
2019-01-17T21:01:47.357Z,3.36
2019-01-17T21:04:16.017Z,3.32
2019-01-17T21:06:44.324Z,3.29
2019-01-17T21:09:12.651Z,3.28
2019-01-17T21:11:40.913Z,3.29
2019-01-17T21:14:09.191Z,3.27
2019-01-17T21:16:37.497Z,3.25
2019-01-17T21:19:07.832Z,2.99
2019-01-17T21:21:36.079Z,3.20
2019-01-17T21:24:04.403Z,3.18
2019-01-17T21:26:32.686Z,3.14
2019-01-17T21:29:00.922Z,3.14
2019-01-17T21:31:29.246Z,3.13
2019-01-17T21:33:57.563Z,3.17
2019-01-17T21:36:25.830Z,3.16
2019-01-17T21:38:54.096Z,3.19
2019-01-17T21:41:22.418Z,3.19
2019-01-17T21:43:50.663Z,3.17
2019-01-17T21:46:19.876Z,3.21
2019-01-17T21:48:48.141Z,2.83
2019-01-17T21:51:16.445Z,3.20
2019-01-17T21:53:45.689Z,3.22
2019-01-17T21:56:14.058Z,3.20
2019-01-17T21:58:42.340Z,3.18
2019-01-17T22:01:10.677Z,3.17
2019-01-17T22:03:38.924Z,3.16
2019-01-17T22:06:07.267Z,3.16
2019-01-17T22:08:35.775Z,3.18
2019-01-17T22:13:39.494Z,3.19
2019-01-17T22:16:07.935Z,3.16
2019-01-17T22:18:38.194Z,3.14
2019-01-17T22:21:09.644Z,3.11
2019-01-17T22:23:38.233Z,3.11
2019-01-17T22:26:06.746Z,3.09
2019-01-17T22:28:35.139Z,3.04
2019-01-17T22:31:03.593Z,2.97
2019-01-17T22:33:33.382Z,2.95
2019-01-17T22:36:01.841Z,2.89
2019-01-17T22:38:30.394Z,2.85
2019-01-17T22:41:00.759Z,2.83
2019-01-17T22:43:29.196Z,2.82
2019-01-17T22:45:59.235Z,2.80
2019-01-17T22:48:27.538Z,2.79
2019-01-17T22:50:55.955Z,2.73
2019-01-17T22:53:24.376Z,2.71
2019-01-17T22:55:55.218Z,2.71
2019-01-17T22:58:28.075Z,2.73
2019-01-17T23:01:00.198Z,2.72
2019-01-17T23:03:31.520Z,2.73
2019-01-17T23:05:59.934Z,2.75
2019-01-17T23:08:28.266Z,2.72
2019-01-17T23:10:56.721Z,2.74
2019-01-17T23:13:25.145Z,2.80
2019-01-17T23:15:53.548Z,2.80
2019-01-17T23:18:21.810Z,2.82
2019-01-17T23:20:50.145Z,2.85
2019-01-17T23:23:18.520Z,2.83
2019-01-17T23:25:46.864Z,2.82
2019-01-17T23:28:15.193Z,2.83
2019-01-17T23:30:43.640Z,2.86
2019-01-17T23:33:12.180Z,2.91
2019-01-17T23:35:40.634Z,2.93
2019-01-17T23:38:10.515Z,2.94
2019-01-17T23:40:38.868Z,2.94
2019-01-17T23:43:07.333Z,2.91
2019-01-17T23:45:37.424Z,2.91
2019-01-17T23:48:05.756Z,2.91
2019-01-17T23:50:34.121Z,2.95
2019-01-17T23:53:02.432Z,2.94
2019-01-17T23:55:30.847Z,2.88
2019-01-17T23:57:59.145Z,2.87
